Time;durP1;ratioP1;P1;durP2;ratioP2;P2;SDS_P1;SDS_P2;PMS_P1;PMS_P2;Temp;Humidity;BMP_temperature;BMP_pressure;BME280_temperature;BME280_humidity;BME280_pressure;Samples;Min_cycle;Max_cycle;Signal;HPM_P1;HPM_P2
2022/04/12 00:01:19;;;;;;;3.13;2.83;;;8.10;99.90;;;;;;5011118;28;20241;-69
2022/04/12 00:03:45;;;;;;;6.47;4.10;;;8.10;99.90;;;;;;5007476;28;20209;-69
2022/04/12 00:06:24;;;;;;;3.70;3.33;;;8.10;99.90;;;;;;5007555;28;20263;-69
2022/04/12 00:08:52;;;;;;;6.50;3.33;;;8.00;99.90;;;;;;5007052;28;20617;-69
2022/04/12 00:11:34;;;;;;;4.70;3.13;;;8.00;99.90;;;;;;5007056;28;20237;-69
2022/04/12 00:14:01;;;;;;;3.30;2.70;;;7.90;99.90;;;;;;5006598;28;20272;-69
2022/04/12 00:16:34;;;;;;;3.40;3.10;;;7.90;99.90;;;;;;5020936;28;20240;-69
2022/04/12 00:19:02;;;;;;;4.40;3.10;;;7.90;99.90;;;;;;5026400;28;20515;-69
2022/04/12 00:21:29;;;;;;;4.17;3.13;;;7.90;99.90;;;;;;5026123;28;20711;-69
2022/04/12 00:23:57;;;;;;;3.43;2.43;;;7.90;99.90;;;;;;5026268;28;20212;-69
2022/04/12 00:26:25;;;;;;;3.30;3.00;;;7.90;99.90;;;;;;5026528;28;20213;-69
2022/04/12 00:28:51;;;;;;;4.07;2.70;;;7.90;99.90;;;;;;5026239;28;21008;-69
2022/04/12 00:31:33;;;;;;;2.97;2.67;;;7.80;99.90;;;;;;5026450;28;20432;-69
2022/04/12 00:34:00;;;;;;;3.80;2.50;;;7.80;99.90;;;;;;5026525;28;20785;-69
2022/04/12 00:36:26;;;;;;;4.67;2.70;;;7.80;99.90;;;;;;5027205;28;20611;-69
2022/04/12 00:38:53;;;;;;;3.10;2.57;;;7.80;99.90;;;;;;5026185;28;20204;-68
2022/04/12 00:41:35;;;;;;;2.93;2.73;;;7.80;99.90;;;;;;5025925;28;20672;-69
2022/04/12 00:44:02;;;;;;;3.73;3.20;;;7.80;99.90;;;;;;5026249;28;20200;-69
2022/04/12 00:46:28;;;;;;;4.40;2.57;;;7.70;99.90;;;;;;5017459;28;20221;-69
2022/04/12 00:48:56;;;;;;;3.10;2.30;;;7.60;99.90;;;;;;5019186;28;20212;-69
2022/04/12 00:51:26;;;;;;;4.40;2.60;;;7.60;99.90;;;;;;5030795;28;20204;-69
2022/04/12 00:53:53;;;;;;;2.33;2.07;;;7.70;99.90;;;;;;5029690;28;20254;-69
2022/04/12 00:56:28;;;;;;;4.47;2.37;;;7.70;99.90;;;;;;5012727;28;20216;-69
2022/04/12 00:58:56;;;;;;;4.37;2.30;;;7.80;99.90;;;;;;5026466;28;20231;-69
2022/04/12 01:01:35;;;;;;;4.97;2.30;;;7.80;99.90;;;;;;5026798;28;20204;-69
2022/04/12 01:04:02;;;;;;;4.17;2.47;;;7.80;99.90;;;;;;5028253;28;20346;-69
2022/04/12 01:06:32;;;;;;;2.60;2.40;;;7.70;99.90;;;;;;5027772;28;20208;-69
2022/04/12 01:08:59;;;;;;;2.40;2.20;;;7.60;99.90;;;;;;5027683;28;20275;-69
2022/04/12 01:11:26;;;;;;;2.90;2.27;;;7.60;99.90;;;;;;5028130;28;20224;-69
2022/04/12 01:13:53;;;;;;;4.00;2.60;;;7.60;99.90;;;;;;5027673;28;20236;-69
2022/04/12 01:16:36;;;;;;;2.73;2.50;;;7.60;99.90;;;;;;5027665;28;20620;-69
2022/04/12 01:19:03;;;;;;;3.80;2.77;;;7.60;99.90;;;;;;5027675;28;20192;-69
2022/04/12 01:21:32;;;;;;;5.13;2.43;;;7.70;99.90;;;;;;5027334;28;20613;-69
2022/04/12 01:24:02;;;;;;;2.50;2.30;;;7.60;99.90;;;;;;5027631;28;20529;-69
2022/04/12 01:26:29;;;;;;;3.47;2.43;;;7.50;99.90;;;;;;5027799;28;20201;-69
2022/04/12 01:28:55;;;;;;;3.60;2.37;;;7.50;99.90;;;;;;5027698;28;20212;-69
2022/04/12 01:31:32;;;;;;;3.73;2.50;;;7.40;99.90;;;;;;5027653;28;20209;-69
2022/04/12 01:33:59;;;;;;;3.40;2.57;;;7.40;99.90;;;;;;5027543;28;20274;-69
2022/04/12 01:36:25;;;;;;;2.57;2.37;;;7.30;99.90;;;;;;5027958;28;20212;-69
2022/04/12 01:38:52;;;;;;;4.77;2.00;;;7.20;99.90;;;;;;5011779;28;20267;-69
2022/04/12 01:41:30;;;;;;;3.53;2.30;;;7.10;99.90;;;;;;5024086;28;20267;-69
2022/04/12 01:43:56;;;;;;;2.33;2.13;;;7.20;99.90;;;;;;5027665;28;20219;-69
2022/04/12 01:46:35;;;;;;;2.40;1.97;;;7.30;99.90;;;;;;5027134;28;20205;-69
2022/04/12 01:49:01;;;;;;;2.73;2.10;;;7.40;99.90;;;;;;5043134;28;20266;-69
2022/04/12 01:51:31;;;;;;;3.10;2.43;;;7.40;99.90;;;;;;5031581;28;20279;-69
2022/04/12 01:53:58;;;;;;;4.63;2.50;;;7.40;99.90;;;;;;5025297;28;20254;-69
2022/04/12 01:56:31;;;;;;;2.90;2.57;;;7.40;99.90;;;;;;5030646;28;20204;-71
2022/04/12 01:58:58;;;;;;;2.80;2.60;;;7.40;99.90;;;;;;5050825;28;20717;-69
2022/04/12 02:01:52;;;;;;;2.97;2.40;;;7.40;99.90;;;;;;5051084;28;20567;-69
2022/04/12 02:04:19;;;;;;;2.80;2.30;;;7.30;99.90;;;;;;5029403;28;20200;-68
2022/04/12 02:06:45;;;;;;;2.47;2.13;;;7.30;99.90;;;;;;5031117;28;20259;-69
2022/04/12 02:09:12;;;;;;;3.03;2.43;;;7.30;99.90;;;;;;5030766;28;20209;-69
2022/04/12 02:11:40;;;;;;;4.77;2.17;;;7.30;99.90;;;;;;5030921;28;20784;-69
2022/04/12 02:14:07;;;;;;;4.40;2.60;;;7.20;99.90;;;;;;5030660;28;20310;-69
2022/04/12 02:16:34;;;;;;;3.67;2.37;;;7.20;99.90;;;;;;5031032;28;20208;-69
2022/04/12 02:19:01;;;;;;;2.47;2.10;;;7.10;99.90;;;;;;5011440;28;20303;-69
2022/04/12 02:21:36;;;;;;;5.13;2.77;;;7.10;99.90;;;;;;5011098;28;20335;-69
2022/04/12 02:24:03;;;;;;;3.97;2.60;;;7.00;99.90;;;;;;5029439;28;20733;-69
2022/04/12 02:26:30;;;;;;;2.83;2.43;;;7.10;99.90;;;;;;5031066;28;20216;-69
2022/04/12 02:28:58;;;;;;;2.20;1.97;;;7.00;99.90;;;;;;5031113;28;20240;-69
2022/04/12 02:31:36;;;;;;;4.50;2.50;;;7.00;99.90;;;;;;5030986;28;20270;-69
2022/04/12 02:34:03;;;;;;;2.93;2.20;;;7.00;99.90;;;;;;5030296;28;20703;-69
2022/04/12 02:36:29;;;;;;;3.90;2.60;;;7.10;99.90;;;;;;5030782;28;20213;-69
2022/04/12 02:38:56;;;;;;;3.37;2.20;;;7.10;99.90;;;;;;5030605;28;20201;-69
2022/04/12 02:41:23;;;;;;;5.90;2.50;;;7.20;99.90;;;;;;5030782;28;20208;-69
2022/04/12 02:43:49;;;;;;;3.30;2.97;;;7.20;99.90;;;;;;5030540;28;20221;-69
2022/04/12 02:46:32;;;;;;;3.30;2.30;;;7.30;99.90;;;;;;5030460;28;20212;-69
2022/04/12 02:48:59;;;;;;;5.90;2.70;;;7.30;99.90;;;;;;5030160;28;20236;-69
2022/04/12 02:51:38;;;;;;;3.47;2.73;;;7.30;99.90;;;;;;5030979;28;20209;-69
2022/04/12 02:54:04;;;;;;;2.80;2.50;;;7.30;99.90;;;;;;5025040;28;20761;-69
2022/04/12 02:56:34;;;;;;;4.63;2.80;;;7.30;99.90;;;;;;5030474;28;20201;-69
2022/04/12 02:59:01;;;;;;;3.07;2.40;;;7.30;99.90;;;;;;5030236;28;20205;-69
2022/04/12 03:01:32;;;;;;;3.27;2.40;;;7.30;99.90;;;;;;5030392;28;20271;-69
2022/04/12 03:03:58;;;;;;;3.53;2.33;;;7.30;99.90;;;;;;5030296;28;20294;-69
2022/04/12 03:06:33;;;;;;;3.73;2.40;;;7.30;99.90;;;;;;5030204;28;20242;-71
2022/04/12 03:09:00;;;;;;;4.50;2.50;;;7.30;99.90;;;;;;5030218;28;20231;-71
2022/04/12 03:11:26;;;;;;;2.40;2.27;;;7.30;99.90;;;;;;5030262;28;20209;-71
2022/04/12 03:13:53;;;;;;;2.60;2.33;;;7.30;99.90;;;;;;5029803;28;20283;-71
2022/04/12 03:16:20;;;;;;;2.67;2.47;;;7.30;99.90;;;;;;5032438;28;20271;-71
2022/04/12 03:18:48;;;;;;;2.70;2.50;;;7.20;99.90;;;;;;5029854;28;20201;-70
2022/04/12 03:21:27;;;;;;;5.17;2.63;;;7.00;99.90;;;;;;5029323;28;20719;-70
2022/04/12 03:23:54;;;;;;;2.90;2.13;;;7.00;99.90;;;;;;5029883;28;20679;-70
2022/04/12 03:26:33;;;;;;;3.33;2.90;;;7.00;99.90;;;;;;5029795;28;20254;-71
2022/04/12 03:28:59;;;;;;;5.00;2.83;;;7.00;99.90;;;;;;5029312;28;20231;-70
2022/04/12 03:31:26;;;;;;;6.17;4.73;;;7.00;99.90;;;;;;5029579;28;20267;-69
2022/04/12 03:33:54;;;;;;;5.03;3.23;;;6.80;99.90;;;;;;5029853;28;20268;-71
2022/04/12 03:36:33;;;;;;;4.40;2.60;;;6.80;99.90;;;;;;5029744;28;20262;-71
2022/04/12 03:38:59;;;;;;;4.53;2.67;;;6.70;99.90;;;;;;5029494;28;20262;-71
2022/04/12 03:41:38;;;;;;;2.80;2.43;;;6.80;99.90;;;;;;5029507;28;20347;-70
2022/04/12 03:44:05;;;;;;;2.83;2.60;;;6.70;99.90;;;;;;5029252;28;20211;-68
2022/04/12 03:46:37;;;;;;;3.10;2.80;;;6.70;99.90;;;;;;5019673;28;20726;-69
2022/04/12 03:49:05;;;;;;;6.80;3.13;;;6.70;99.90;;;;;;5017381;28;20197;-68
2022/04/12 03:51:32;;;;;;;4.03;3.60;;;6.60;99.90;;;;;;5028968;28;20259;-68
2022/04/12 03:53:59;;;;;;;4.30;3.53;;;6.60;99.90;;;;;;5028300;28;20232;-69
2022/04/12 03:56:35;;;;;;;3.77;3.10;;;6.60;99.90;;;;;;5029301;28;20637;-70
2022/04/12 03:59:02;;;;;;;3.40;3.10;;;6.60;99.90;;;;;;5029070;28;20213;-70
2022/04/12 04:01:29;;;;;;;2.67;2.47;;;6.60;99.90;;;;;;5029127;28;20263;-70
2022/04/12 04:03:56;;;;;;;3.87;2.93;;;6.60;99.90;;;;;;5009218;28;20212;-70
2022/04/12 04:06:24;;;;;;;2.80;2.60;;;6.50;99.90;;;;;;5009162;28;20202;-70
2022/04/12 04:08:50;;;;;;;4.57;2.77;;;6.50;99.90;;;;;;5009297;28;20216;-70
2022/04/12 04:11:23;;;;;;;4.53;2.70;;;6.50;99.90;;;;;;5027323;28;20208;-70
2022/04/12 04:13:50;;;;;;;5.23;2.93;;;6.50;99.90;;;;;;5028536;28;20830;-70
2022/04/12 04:16:38;;;;;;;6.00;2.87;;;6.40;99.90;;;;;;5031268;28;20212;-70
2022/04/12 04:19:08;;;;;;;2.60;2.40;;;6.50;99.90;;;;;;5028343;28;20213;-70
2022/04/12 04:21:36;;;;;;;3.37;2.77;;;6.50;99.90;;;;;;5028426;28;20239;-70
2022/04/12 04:24:04;;;;;;;3.47;2.80;;;6.50;99.90;;;;;;5028587;28;20655;-70
2022/04/12 04:26:30;;;;;;;3.47;2.60;;;6.50;99.90;;;;;;5028711;28;20204;-70
2022/04/12 04:28:57;;;;;;;3.70;2.90;;;6.50;99.90;;;;;;5028541;28;20224;-69
2022/04/12 04:31:24;;;;;;;3.70;3.03;;;6.50;99.90;;;;;;5028710;28;20215;-70
2022/04/12 04:33:50;;;;;;;3.93;2.93;;;6.50;99.90;;;;;;5028479;28;20286;-70
2022/04/12 04:36:23;;;;;;;3.03;2.73;;;6.50;99.90;;;;;;5028214;28;20270;-70
2022/04/12 04:38:51;;;;;;;4.10;2.90;;;6.60;99.90;;;;;;5028550;28;20209;-70
2022/04/12 04:41:24;;;;;;;3.03;2.80;;;6.60;99.90;;;;;;5028508;28;20262;-69
2022/04/12 04:43:52;;;;;;;5.47;2.83;;;6.70;99.90;;;;;;5027969;28;20668;-70
2022/04/12 04:46:29;;;;;;;3.30;2.60;;;6.60;99.90;;;;;;5020303;28;20748;-70
2022/04/12 04:48:56;;;;;;;3.33;3.03;;;6.60;99.90;;;;;;5019532;28;20195;-70
2022/04/12 04:51:22;;;;;;;3.30;2.90;;;6.70;99.90;;;;;;5028352;28;20209;-70
2022/04/12 04:53:57;;;;;;;4.77;3.17;;;6.70;99.90;;;;;;5028127;28;20236;-71
2022/04/12 04:56:36;;;;;;;4.13;3.27;;;6.70;99.90;;;;;;5027933;28;20541;-71
2022/04/12 04:59:03;;;;;;;3.10;2.90;;;6.80;99.90;;;;;;5027772;28;20266;-68
2022/04/12 05:01:30;;;;;;;3.23;2.93;;;6.70;99.90;;;;;;5028314;28;20209;-69
2022/04/12 05:03:56;;;;;;;3.47;3.17;;;6.70;99.90;;;;;;5027621;28;20209;-68
2022/04/12 05:06:26;;;;;;;3.63;3.00;;;6.70;99.90;;;;;;5027826;28;20204;-71
2022/04/12 05:08:54;;;;;;;3.80;3.00;;;6.70;99.90;;;;;;5027799;28;20209;-71
2022/04/12 05:11:23;;;;;;;3.93;3.27;;;6.70;99.90;;;;;;5027716;28;20746;-71
2022/04/12 05:13:50;;;;;;;3.30;3.00;;;6.80;99.90;;;;;;5027561;28;20232;-68
2022/04/12 05:16:26;;;;;;;6.10;3.40;;;6.80;99.90;;;;;;5030216;28;20217;-68
2022/04/12 05:18:52;;;;;;;3.47;2.97;;;6.80;99.90;;;;;;5027963;28;20204;-68
2022/04/12 05:21:22;;;;;;;4.80;3.20;;;6.80;99.90;;;;;;5027684;28;20236;-68
2022/04/12 05:23:49;;;;;;;5.37;2.87;;;6.80;99.90;;;;;;5027533;28;20240;-68
2022/04/12 05:26:29;;;;;;;4.30;3.03;;;6.80;99.90;;;;;;5027797;28;20205;-72
2022/04/12 05:28:56;;;;;;;3.00;2.80;;;6.90;99.90;;;;;;5027356;28;20292;-72
2022/04/12 05:31:23;;;;;;;4.57;3.20;;;6.90;99.90;;;;;;5031358;28;20204;-69
2022/04/12 05:33:49;;;;;;;4.97;3.17;;;6.90;99.90;;;;;;5045652;28;20591;-70
2022/04/12 05:36:22;;;;;;;3.87;2.87;;;6.90;99.90;;;;;;5032238;28;20208;-70
2022/04/12 05:38:49;;;;;;;3.37;2.97;;;6.90;99.90;;;;;;5031747;28;20216;-70
2022/04/12 05:41:29;;;;;;;3.80;3.03;;;6.90;99.90;;;;;;5031437;28;20577;-70
2022/04/12 05:43:56;;;;;;;4.83;3.50;;;6.90;99.90;;;;;;5031650;28;20255;-71
2022/04/12 05:46:25;;;;;;;3.60;2.97;;;6.90;99.90;;;;;;5031374;28;20279;-71
2022/04/12 05:48:52;;;;;;;6.60;3.47;;;7.00;99.90;;;;;;5031367;28;20213;-70
2022/04/12 05:51:18;;;;;;;3.20;2.90;;;7.00;99.90;;;;;;5027536;28;20221;-70
2022/04/12 05:53:45;;;;;;;4.60;3.23;;;7.10;99.90;;;;;;5019542;28;20244;-70
2022/04/12 05:56:31;;;;;;;5.37;3.30;;;7.20;99.90;;;;;;5029180;28;20240;-70
2022/04/12 05:58:58;;;;;;;8.40;3.33;;;7.20;99.90;;;;;;5009553;28;20197;-70
2022/04/12 06:01:28;;;;;;;3.40;3.10;;;7.20;99.90;;;;;;5009886;28;20705;-70
2022/04/12 06:03:54;;;;;;;6.27;3.20;;;7.20;99.90;;;;;;5027984;28;20567;-70
2022/04/12 06:06:30;;;;;;;3.27;2.90;;;7.20;99.90;;;;;;5028555;28;20262;-70
2022/04/12 06:08:56;;;;;;;3.20;2.90;;;7.20;99.90;;;;;;5028769;28;20201;-70
2022/04/12 06:11:43;;;;;;;3.27;2.93;;;7.30;99.90;;;;;;5029063;28;20211;-70
2022/04/12 06:14:09;;;;;;;7.70;3.47;;;7.30;99.90;;;;;;5028606;28;20279;-70
2022/04/12 06:16:36;;;;;;;4.23;3.10;;;7.30;99.90;;;;;;5031064;28;20625;-70
2022/04/12 06:19:03;;;;;;;3.27;2.90;;;7.30;99.90;;;;;;5021537;28;20721;-70
2022/04/12 06:21:33;;;;;;;4.00;3.10;;;7.30;99.90;;;;;;5009011;28;20909;-70
2022/04/12 06:24:00;;;;;;;3.60;3.20;;;7.40;99.90;;;;;;5009145;28;20224;-70
2022/04/12 06:26:26;;;;;;;5.00;3.30;;;7.40;99.90;;;;;;5008817;28;20268;-70
2022/04/12 06:28:54;;;;;;;3.77;3.43;;;7.50;99.90;;;;;;5012561;28;20263;-70
2022/04/12 06:31:27;;;;;;;4.57;3.50;;;7.40;99.90;;;;;;5028327;28;20319;-70
2022/04/12 06:33:54;;;;;;;7.13;3.37;;;7.40;99.90;;;;;;5018169;28;20243;-70
2022/04/12 06:36:21;;;;;;;3.37;3.07;;;7.50;99.90;;;;;;5028127;28;20264;-70
2022/04/12 06:38:47;;;;;;;3.70;3.13;;;7.60;99.90;;;;;;5028361;28;20672;-70
2022/04/12 06:41:26;;;;;;;6.83;3.47;;;7.60;99.90;;;;;;5028030;28;20332;-70
2022/04/12 06:43:54;;;;;;;4.83;3.00;;;7.70;99.90;;;;;;5028910;28;20209;-70
2022/04/12 06:46:26;;;;;;;5.20;3.23;;;7.70;99.90;;;;;;5027895;28;20204;-70
2022/04/12 06:48:53;;;;;;;3.63;3.10;;;7.80;99.90;;;;;;5028038;28;20201;-70
2022/04/12 06:51:29;;;;;;;3.73;3.23;;;7.80;99.90;;;;;;5027889;28;20359;-70
2022/04/12 06:53:56;;;;;;;5.73;3.13;;;7.90;99.90;;;;;;5027649;28;20208;-70
2022/04/12 06:56:22;;;;;;;3.30;3.00;;;8.00;99.90;;;;;;5027625;28;20326;-71
2022/04/12 06:58:49;;;;;;;5.40;2.63;;;8.00;99.90;;;;;;5026768;28;20204;-71
2022/04/12 07:01:23;;;;;;;3.60;3.30;;;8.10;99.90;;;;;;5027535;28;20201;-72
2022/04/12 07:03:49;;;;;;;3.67;2.80;;;8.10;99.90;;;;;;5027313;28;20213;-71
2022/04/12 07:06:19;;;;;;;5.10;2.83;;;8.20;99.90;;;;;;5027297;28;20205;-70
2022/04/12 07:08:46;;;;;;;4.70;2.70;;;8.20;99.90;;;;;;5014381;28;20263;-71
2022/04/12 07:11:20;;;;;;;4.57;3.00;;;8.30;99.90;;;;;;5025107;28;20200;-70
2022/04/12 07:13:46;;;;;;;4.07;2.97;;;8.30;99.90;;;;;;5029529;28;20252;-71
2022/04/12 07:16:23;;;;;;;3.60;2.60;;;8.40;99.90;;;;;;5031987;28;20276;-70
2022/04/12 07:18:50;;;;;;;3.33;3.03;;;8.50;99.90;;;;;;5029662;28;20262;-70
2022/04/12 07:21:21;;;;;;;3.83;2.90;;;8.60;99.90;;;;;;5028482;28;20298;-70
2022/04/12 07:23:50;;;;;;;3.40;2.73;;;8.70;99.90;;;;;;5028097;28;20296;-70
2022/04/12 07:26:20;;;;;;;2.87;2.43;;;8.70;99.90;;;;;;5041870;28;20208;-70
2022/04/12 07:28:46;;;;;;;3.53;3.23;;;8.70;99.90;;;;;;5039064;28;20216;-70
2022/04/12 07:31:19;;;;;;;2.77;2.53;;;8.80;99.90;;;;;;5027743;28;20221;-71
2022/04/12 07:33:47;;;;;;;3.50;2.67;;;8.90;99.90;;;;;;5028073;28;20726;-70
2022/04/12 07:36:23;;;;;;;4.43;2.70;;;8.90;99.80;;;;;;5028709;28;20279;-70
2022/04/12 07:38:50;;;;;;;3.90;2.67;;;9.00;99.80;;;;;;5028804;28;20737;-70
2022/04/12 07:42:01;;;;;;;3.30;2.93;;;9.00;99.60;;;;;;5029448;28;20255;-70
2022/04/12 07:44:28;;;;;;;4.67;3.07;;;9.10;99.70;;;;;;5028586;28;20695;-70
2022/04/12 07:46:54;;;;;;;3.30;2.73;;;9.20;99.20;;;;;;5028816;28;20209;-70
2022/04/12 07:49:22;;;;;;;3.47;2.90;;;9.30;99.10;;;;;;5028986;28;20300;-70
2022/04/12 07:51:53;;;;;;;2.50;2.27;;;9.40;98.80;;;;;;5028461;28;20224;-71
2022/04/12 07:54:20;;;;;;;4.00;2.60;;;9.40;98.80;;;;;;5029003;28;20255;-70
2022/04/12 07:56:46;;;;;;;4.20;2.87;;;9.50;98.60;;;;;;5028767;28;20610;-70
2022/04/12 07:59:13;;;;;;;5.80;2.73;;;9.50;98.00;;;;;;5028966;28;20247;-70
2022/04/12 08:01:39;;;;;;;3.20;2.57;;;9.60;97.80;;;;;;5029178;28;20244;-70
2022/04/12 08:04:06;;;;;;;4.20;3.00;;;9.70;97.80;;;;;;5028832;28;20212;-70
2022/04/12 08:06:34;;;;;;;2.80;2.30;;;9.80;97.60;;;;;;5028834;28;20209;-70
2022/04/12 08:09:01;;;;;;;5.47;2.70;;;9.80;97.10;;;;;;5028544;28;20680;-70
2022/04/12 08:11:28;;;;;;;3.83;3.00;;;10.00;97.30;;;;;;5028976;28;20217;-70
2022/04/12 08:13:54;;;;;;;3.67;3.00;;;10.00;97.40;;;;;;5028686;28;20229;-71
2022/04/12 08:16:21;;;;;;;3.23;2.97;;;10.10;97.70;;;;;;5020457;28;20237;-70
2022/04/12 08:18:48;;;;;;;3.37;2.83;;;10.20;97.20;;;;;;5008887;28;20619;-70
2022/04/12 08:21:35;;;;;;;3.77;2.63;;;10.30;97.20;;;;;;5011507;28;20671;-70
2022/04/12 08:24:02;;;;;;;3.57;2.83;;;10.30;97.30;;;;;;5027574;28;20251;-70
2022/04/12 08:26:29;;;;;;;5.03;2.97;;;10.50;96.90;;;;;;5021872;28;20312;-70
2022/04/12 08:28:56;;;;;;;3.63;3.27;;;10.50;96.60;;;;;;5008564;28;20672;-70
2022/04/12 08:31:22;;;;;;;3.37;3.07;;;10.60;96.30;;;;;;5008872;28;20275;-70
2022/04/12 08:33:49;;;;;;;6.63;3.30;;;10.70;96.00;;;;;;5008360;28;20643;-70
2022/04/12 08:36:16;;;;;;;6.83;3.80;;;10.80;95.90;;;;;;5027230;28;20241;-71
2022/04/12 08:38:45;;;;;;;3.63;3.10;;;10.90;96.00;;;;;;5028257;28;20205;-70
2022/04/12 08:41:22;;;;;;;3.53;3.23;;;10.90;95.30;;;;;;5028720;28;20208;-70
2022/04/12 08:43:52;;;;;;;5.20;3.30;;;11.00;95.10;;;;;;5028263;28;20196;-69
2022/04/12 08:46:20;;;;;;;4.00;3.60;;;11.00;94.90;;;;;;5028109;28;20205;-71
2022/04/12 08:48:48;;;;;;;3.90;3.50;;;11.10;94.90;;;;;;5027843;28;20209;-70
2022/04/12 08:51:33;;;;;;;4.47;3.70;;;11.10;94.60;;;;;;5027716;28;20247;-71
2022/04/12 08:54:02;;;;;;;6.87;3.37;;;11.10;94.90;;;;;;5022872;28;20204;-70
2022/04/12 08:56:29;;;;;;;3.87;3.40;;;11.20;95.40;;;;;;5028525;28;20255;-70
2022/04/12 08:58:57;;;;;;;6.07;3.47;;;11.20;95.80;;;;;;5028033;28;20213;-70
2022/04/12 09:01:23;;;;;;;4.70;4.10;;;11.20;96.40;;;;;;5027301;28;20205;-70
2022/04/12 09:03:50;;;;;;;4.90;3.17;;;11.30;95.30;;;;;;5019967;28;20220;-70
2022/04/12 09:06:20;;;;;;;4.00;3.60;;;11.30;95.30;;;;;;5025786;28;20328;-70
2022/04/12 09:08:46;;;;;;;4.83;3.63;;;11.40;95.10;;;;;;5023840;28;20633;-70
2022/04/12 09:11:22;;;;;;;6.33;3.70;;;11.30;94.70;;;;;;5025426;28;20209;-70
2022/04/12 09:14:01;;;;;;;4.23;3.37;;;11.40;95.10;;;;;;5025287;28;20844;-68
2022/04/12 09:16:28;;;;;;;3.77;3.10;;;11.40;94.40;;;;;;5027765;28;20294;-68
2022/04/12 09:18:55;;;;;;;4.30;3.70;;;11.60;94.90;;;;;;5029691;28;20212;-68
2022/04/12 09:24:46;;;;;;;4.27;3.47;;;11.70;93.60;;;;;;5017606;28;20235;-68
2022/04/12 09:27:16;;;;;;;5.03;3.67;;;11.90;94.10;;;;;;5024555;28;20224;-68
2022/04/12 09:29:48;;;;;;;5.00;3.20;;;11.90;93.90;;;;;;5026077;28;20213;-70
2022/04/12 09:32:15;;;;;;;4.70;4.27;;;12.00;94.10;;;;;;5025617;28;20208;-70
2022/04/12 09:34:44;;;;;;;4.40;4.00;;;12.10;94.30;;;;;;5025386;28;20239;-70
2022/04/12 09:37:22;;;;;;;4.30;3.60;;;12.30;94.40;;;;;;5025050;28;20658;-68
2022/04/12 09:40:07;;;;;;;5.80;4.20;;;12.40;94.20;;;;;;5025087;28;20208;-68
2022/04/12 09:42:40;;;;;;;3.67;3.30;;;12.60;94.20;;;;;;5025164;28;20212;-68
2022/04/12 09:45:09;;;;;;;4.57;4.17;;;12.70;94.10;;;;;;5024918;28;20213;-70
2022/04/12 09:47:36;;;;;;;4.10;3.37;;;12.70;93.90;;;;;;5024729;28;20215;-70
2022/04/12 09:50:03;;;;;;;3.70;3.40;;;12.70;93.40;;;;;;5024305;28;20223;-70
2022/04/12 09:52:58;;;;;;;3.67;3.33;;;12.70;92.70;;;;;;5024110;28;20209;-70
2022/04/12 09:55:36;;;;;;;4.37;3.10;;;12.70;92.30;;;;;;5023393;28;20522;-70
2022/04/12 09:58:06;;;;;;;3.67;3.37;;;12.80;92.50;;;;;;5004920;28;20213;-68
2022/04/12 10:00:33;;;;;;;4.47;3.63;;;12.80;92.20;;;;;;5005892;28;20210;-68
2022/04/12 10:03:02;;;;;;;3.90;3.60;;;12.80;91.90;;;;;;5024744;28;20205;-69
2022/04/12 10:05:29;;;;;;;3.57;3.27;;;12.80;92.10;;;;;;5024246;28;20631;-69
2022/04/12 10:07:58;;;;;;;4.53;3.70;;;12.80;92.60;;;;;;5024695;28;20551;-69
2022/04/12 10:10:24;;;;;;;4.80;3.60;;;12.90;92.60;;;;;;5025716;28;20228;-69
2022/04/12 10:12:53;;;;;;;5.57;3.60;;;12.90;92.70;;;;;;5025105;28;20252;-69
2022/04/12 10:15:21;;;;;;;3.00;2.80;;;12.90;93.50;;;;;;5025268;28;20209;-69
2022/04/12 10:21:11;;;;;;;4.10;3.30;;;13.00;91.80;;;;;;5023765;28;20846;-69
2022/04/12 10:23:40;;;;;;;2.90;2.70;;;13.10;91.90;;;;;;5028135;28;20745;-69
2022/04/12 10:26:08;;;;;;;3.23;3.03;;;13.20;91.90;;;;;;5028116;28;20205;-69
2022/04/12 10:28:36;;;;;;;3.47;3.17;;;13.30;91.80;;;;;;5028117;28;20212;-69
2022/04/12 10:31:20;;;;;;;3.50;3.20;;;13.30;92.10;;;;;;5027351;28;20212;-68
2022/04/12 10:33:52;;;;;;;4.00;3.23;;;13.40;91.50;;;;;;5029774;28;20845;-69
2022/04/12 10:36:18;;;;;;;3.20;3.00;;;13.50;91.40;;;;;;5027238;28;20760;-68
2022/04/12 10:38:46;;;;;;;3.33;2.97;;;13.50;91.60;;;;;;5027956;28;20241;-69
2022/04/12 10:41:15;;;;;;;3.40;3.10;;;13.60;91.70;;;;;;5026085;28;20263;-67
2022/04/12 10:43:42;;;;;;;3.50;3.20;;;13.70;91.30;;;;;;5027350;28;20447;-68
2022/04/12 10:46:12;;;;;;;4.90;3.67;;;13.80;91.70;;;;;;5027880;28;20938;-68
2022/04/12 10:48:39;;;;;;;4.10;3.70;;;13.80;91.00;;;;;;5026962;28;20713;-69
2022/04/12 10:51:07;;;;;;;3.37;3.07;;;13.80;91.10;;;;;;5027799;28;20201;-69
2022/04/12 10:53:56;;;;;;;4.47;3.60;;;13.90;91.00;;;;;;5026646;28;20739;-69
2022/04/12 10:56:26;;;;;;;3.73;3.23;;;14.00;91.30;;;;;;5023410;28;20696;-69
2022/04/12 10:58:53;;;;;;;4.10;3.70;;;14.00;91.60;;;;;;5026754;28;20232;-69
2022/04/12 11:01:31;;;;;;;6.33;3.70;;;14.10;90.90;;;;;;5026405;28;20201;-69
2022/04/12 11:04:00;;;;;;;3.60;3.30;;;14.20;91.40;;;;;;5025698;28;20227;-69
2022/04/12 11:06:28;;;;;;;3.90;3.50;;;14.30;91.40;;;;;;5024041;28;20228;-69
2022/04/12 11:09:07;;;;;;;5.47;3.40;;;14.40;91.00;;;;;;5026591;28;20292;-69
2022/04/12 11:11:39;;;;;;;4.33;3.50;;;14.40;90.60;;;;;;5026090;28;20212;-69
2022/04/12 11:14:21;;;;;;;4.03;3.73;;;14.50;91.00;;;;;;5023644;28;20236;-69
2022/04/12 11:16:51;;;;;;;3.77;3.40;;;14.40;91.20;;;;;;5033308;28;20929;-69
2022/04/12 11:19:21;;;;;;;4.07;3.70;;;14.50;90.00;;;;;;5026876;28;20244;-69
2022/04/12 11:22:00;;;;;;;3.80;3.50;;;14.40;90.30;;;;;;5024349;28;20238;-69
2022/04/12 11:24:27;;;;;;;4.50;3.13;;;14.50;90.00;;;;;;5027214;28;20197;-69
2022/04/12 11:27:05;;;;;;;4.30;3.57;;;14.60;90.10;;;;;;5024600;28;20672;-68
2022/04/12 11:29:33;;;;;;;3.43;3.13;;;14.70;89.60;;;;;;5015209;28;20200;-69
2022/04/12 11:32:02;;;;;;;4.10;3.80;;;14.70;90.30;;;;;;5044413;28;20218;-69
2022/04/12 11:34:30;;;;;;;4.17;3.73;;;14.80;90.20;;;;;;5024648;28;20744;-69
2022/04/12 11:36:58;;;;;;;4.80;3.70;;;15.00;90.80;;;;;;5024622;28;20229;-69
2022/04/12 11:39:26;;;;;;;3.87;3.57;;;15.10;90.50;;;;;;5024055;28;20813;-68
2022/04/12 11:41:57;;;;;;;4.97;4.07;;;15.10;90.00;;;;;;5024402;28;20266;-69
2022/04/12 11:44:24;;;;;;;6.03;3.70;;;15.10;87.90;;;;;;5030551;28;20200;-68
2022/04/12 11:46:57;;;;;;;4.23;3.93;;;15.20;89.00;;;;;;5027205;28;20221;-68
2022/04/12 11:49:32;;;;;;;3.70;3.40;;;15.40;90.40;;;;;;5024753;28;20197;-68
2022/04/12 11:52:01;;;;;;;4.20;3.80;;;15.40;90.30;;;;;;5024359;28;20258;-69
2022/04/12 11:54:29;;;;;;;4.90;3.60;;;15.40;88.40;;;;;;5024327;28;20600;-68
2022/04/12 11:57:04;;;;;;;4.80;3.80;;;15.50;89.10;;;;;;5024290;28;21128;-68
2022/04/12 11:59:32;;;;;;;4.13;3.73;;;15.50;88.60;;;;;;5037303;28;20211;-69
2022/04/12 12:02:01;;;;;;;4.20;3.80;;;15.60;88.60;;;;;;5004817;28;20287;-68
2022/04/12 12:04:31;;;;;;;3.40;3.10;;;15.70;90.00;;;;;;5005252;28;20213;-69
2022/04/12 12:07:01;;;;;;;3.77;3.43;;;15.90;89.00;;;;;;5013753;28;20809;-68
2022/04/12 12:09:28;;;;;;;4.50;4.00;;;15.90;87.90;;;;;;5025394;28;20209;-68
2022/04/12 12:11:58;;;;;;;4.33;3.33;;;15.90;86.80;;;;;;5025554;28;20723;-69
2022/04/12 12:14:25;;;;;;;3.63;3.33;;;16.00;86.80;;;;;;5030257;28;20205;-69
2022/04/12 12:17:03;;;;;;;5.13;3.50;;;16.30;86.90;;;;;;5012855;28;20273;-68
2022/04/12 12:19:33;;;;;;;4.17;3.33;;;16.40;84.40;;;;;;5004624;28;20212;-69
2022/04/12 12:22:02;;;;;;;5.73;3.50;;;16.40;84.20;;;;;;5004225;28;20738;-68
2022/04/12 12:24:28;;;;;;;4.30;3.57;;;16.40;85.60;;;;;;5020153;28;20220;-68
2022/04/12 12:26:56;;;;;;;8.90;3.63;;;16.40;84.50;;;;;;5033414;28;20297;-69
2022/04/12 12:29:25;;;;;;;4.20;3.80;;;16.50;84.80;;;;;;5028242;28;20205;-69
2022/04/12 12:31:56;;;;;;;6.90;3.93;;;16.80;85.70;;;;;;5023409;28;20298;-68
2022/04/12 12:34:31;;;;;;;3.57;3.27;;;16.80;84.00;;;;;;5024634;28;20205;-68
2022/04/12 12:36:58;;;;;;;5.67;3.50;;;16.90;85.20;;;;;;5024572;28;20236;-69
2022/04/12 12:39:27;;;;;;;5.63;3.37;;;17.10;87.70;;;;;;5023814;28;20231;-68
2022/04/12 12:41:58;;;;;;;3.77;3.37;;;17.20;83.90;;;;;;5026596;28;20211;-68
2022/04/12 12:44:25;;;;;;;3.90;3.60;;;17.20;83.40;;;;;;5023287;28;20221;-68
2022/04/12 12:46:59;;;;;;;3.87;3.57;;;17.20;82.20;;;;;;5023545;28;20303;-68
2022/04/12 12:49:36;;;;;;;4.83;3.20;;;17.30;82.20;;;;;;5022897;28;20941;-68
2022/04/12 12:52:04;;;;;;;9.47;3.50;;;17.40;82.10;;;;;;5023845;28;20212;-68
2022/04/12 12:54:31;;;;;;;4.03;3.70;;;17.60;82.00;;;;;;5024032;28;20306;-69
2022/04/12 12:56:58;;;;;;;4.27;3.20;;;17.60;80.90;;;;;;5023446;28;20220;-69
2022/04/12 12:59:30;;;;;;;4.07;3.63;;;17.60;81.40;;;;;;5024118;28;20240;-69
2022/04/12 13:01:58;;;;;;;4.10;3.50;;;17.60;81.30;;;;;;5024426;28;20213;-69
2022/04/12 13:04:26;;;;;;;3.77;3.47;;;17.60;78.40;;;;;;5042548;28;20208;-68
2022/04/12 13:07:06;;;;;;;3.47;3.20;;;17.70;78.20;;;;;;5044148;28;20212;-69
2022/04/12 13:09:33;;;;;;;4.03;3.50;;;17.80;79.60;;;;;;5029010;28;20215;-68
2022/04/12 13:12:00;;;;;;;4.77;3.80;;;18.00;81.00;;;;;;5043686;28;20608;-69
2022/04/12 13:14:27;;;;;;;4.27;3.87;;;18.10;79.90;;;;;;5028903;28;20213;-68